»·PEaware :: N510CJ KSFO-KEKA

N510CJ :: KSFO-KEKA

FLIGHT INFORMATION

Flight Status: Arrived
Operator: Privately registered:
United States
More flights under this callsign
Pilot: John G. (2195)
Aircraft: CESSNA 510 CITATION MUSTANG
(C510)
More flights by this aircraft type
Origin: KSFO San Francisco Intl
United States
Destination: KEKA Murray
United States
More flights between these airports :: More routes between these airports
Route: +TRUKN2 GRTFL DALON
File this flight plan on PilotEdge
Remarks:
Altitude:
(Current/Filed)
24,000ft
Speed:
(Current/Filed)
320kts
Departed: 21-Dec-17 11:51 AM
Arrived: 21-Dec-17 12:56 PM
Distance/Time
Traveled:
208nm/1:05
Distance/Time
To Go:
Arrived

Flight Plot

Page will automatically refresh every two minutes.

Flight plan parsing failed; only flown route is shown


Map Options




Map Legend


Flown Route
Filed Route
Departure Airport
Arrival Airport
Navaid (VOR, NDB)
Fix

Horizontal Profiles

Position Reports

Time Latitude Longitude Heading Altitude Ground
Speed
21-Dec-17 11:41 37.627725 -122.384302 277 14ft 0kts
21-Dec-17 11:42 37.627725 -122.384303 277 14ft 0kts
21-Dec-17 11:43 37.627725 -122.384303 277 14ft 0kts
21-Dec-17 11:44 37.627725 -122.384304 277 14ft 0kts
21-Dec-17 11:45 37.627725 -122.384304 277 14ft 0kts
21-Dec-17 11:46 37.627726 -122.384305 277 14ft 0kts
21-Dec-17 11:47 37.627726 -122.384305 277 14ft 0kts
21-Dec-17 11:48 37.627726 -122.384306 277 14ft 0kts
21-Dec-17 11:49 37.627726 -122.384306 277 14ft 0kts
21-Dec-17 11:50 37.627726 -122.384307 277 14ft 0kts
21-Dec-17 11:51 37.627726 -122.384307 277 14ft 0kts
21-Dec-17 11:52 37.627726 -122.384308 277 14ft 0kts
21-Dec-17 11:53 37.627012 -122.384518 197 14ft 11kts
21-Dec-17 11:54 37.624542 -122.379721 115 14ft 18kts
21-Dec-17 11:55 37.622763 -122.375660 139 14ft 0kts
21-Dec-17 11:56 37.622576 -122.375500 159 14ft 2kts
21-Dec-17 11:57 37.624962 -122.384475 296 89ft 106kts
21-Dec-17 11:58 37.649125 -122.417049 8 3213ft 135kts
21-Dec-17 11:59 37.657276 -122.370707 76 6745ft 121kts
21-Dec-17 12:00 37.665853 -122.336721 61 9083ft 120kts
21-Dec-17 12:01 37.683484 -122.295192 52 11329ft 152kts
21-Dec-17 12:02 37.705126 -122.244289 51 13872ft 176kts
21-Dec-17 12:03 37.737304 -122.206714 353 16575ft 163kts
21-Dec-17 12:04 37.782645 -122.214992 356 19147ft 165kts
21-Dec-17 12:05 37.828867 -122.217369 359 21404ft 168kts
21-Dec-17 12:06 37.875966 -122.218732 359 23430ft 171kts
21-Dec-17 12:07 37.928561 -122.220113 359 24368ft 211kts
21-Dec-17 12:08 37.994517 -122.221836 358 24370ft 254kts
21-Dec-17 12:09 38.065613 -122.223777 359 24363ft 255kts
21-Dec-17 12:10 38.136741 -122.225591 359 24360ft 256kts
21-Dec-17 12:11 38.207843 -122.227495 358 24360ft 255kts
21-Dec-17 12:12 38.279184 -122.229448 358 24350ft 256kts
21-Dec-17 12:13 38.350575 -122.231405 358 24348ft 257kts
21-Dec-17 12:14 38.421956 -122.234640 357 24350ft 258kts
21-Dec-17 12:15 38.493787 -122.238250 358 24354ft 257kts
21-Dec-17 12:16 38.565579 -122.241802 357 24356ft 259kts
21-Dec-17 12:17 38.637764 -122.245365 357 24356ft 259kts
21-Dec-17 12:18 38.709874 -122.248910 357 24357ft 259kts
21-Dec-17 12:19 38.782267 -122.252500 357 24362ft 261kts
21-Dec-17 12:20 38.855042 -122.256102 357 24363ft 261kts
21-Dec-17 12:21 38.927730 -122.259680 357 24361ft 262kts
21-Dec-17 12:22 39.000628 -122.263267 357 24362ft 262kts
21-Dec-17 12:23 39.073742 -122.268068 348 24360ft 263kts
21-Dec-17 12:24 39.133826 -122.325119 323 24370ft 272kts
21-Dec-17 12:25 39.190913 -122.389967 325 24374ft 273kts
21-Dec-17 12:26 39.249190 -122.452265 326 24386ft 272kts
21-Dec-17 12:27 39.307932 -122.513775 326 24387ft 272kts
21-Dec-17 12:28 39.366999 -122.575304 326 24387ft 271kts
21-Dec-17 12:29 39.426157 -122.636252 326 24384ft 272kts
21-Dec-17 12:30 39.485209 -122.697613 326 24384ft 272kts
21-Dec-17 12:31 39.544335 -122.759396 326 24388ft 273kts
21-Dec-17 12:32 39.603297 -122.821248 325 24388ft 273kts
21-Dec-17 12:33 39.662430 -122.883410 325 24384ft 273kts
21-Dec-17 12:34 39.721417 -122.945578 325 24334ft 275kts
21-Dec-17 12:35 39.780469 -123.007181 325 22928ft 271kts
21-Dec-17 12:36 39.839483 -123.067938 325 21425ft 270kts
21-Dec-17 12:37 39.898330 -123.127757 326 19928ft 267kts
21-Dec-17 12:38 39.957047 -123.186710 326 19395ft 265kts
21-Dec-17 12:39 40.016599 -123.245149 326 19394ft 266kts
21-Dec-17 12:40 40.074804 -123.306586 323 19357ft 271kts
21-Dec-17 12:41 40.132036 -123.369890 323 17753ft 268kts
21-Dec-17 12:42 40.189275 -123.432715 323 16166ft 266kts
21-Dec-17 12:43 40.246934 -123.495242 324 14845ft 269kts
21-Dec-17 12:44 40.304983 -123.557356 324 13340ft 269kts
21-Dec-17 12:45 40.362978 -123.618903 324 11841ft 269kts
21-Dec-17 12:46 40.421900 -123.680872 324 10343ft 275kts
21-Dec-17 12:47 40.479314 -123.744415 320 8889ft 280kts
21-Dec-17 12:48 40.533682 -123.806861 320 7437ft 247kts
21-Dec-17 12:49 40.581944 -123.861287 320 6496ft 210kts
21-Dec-17 12:50 40.622137 -123.906902 320 5582ft 188kts
21-Dec-17 12:51 40.661041 -123.951346 319 4681ft 187kts
21-Dec-17 12:52 40.699782 -123.997957 317 3820ft 188kts
21-Dec-17 12:53 40.736368 -124.044196 316 2320ft 171kts
21-Dec-17 12:54 40.770860 -124.081580 326 1503ft 150kts
21-Dec-17 12:55 40.806861 -124.107637 318 1398ft 140kts
21-Dec-17 12:56 40.800109 -124.148844 211 1502ft 133kts
21-Dec-17 12:57 40.771372 -124.140132 116 1118ft 105kts
21-Dec-17 12:58 40.747272 -124.117308 150 1190ft 111kts
21-Dec-17 12:59 40.748748 -124.088140 27 1325ft 116kts
21-Dec-17 13:00 40.780466 -124.092096 352 936ft 111kts
21-Dec-17 13:01 40.803358 -124.112805 315 9ft 62kts
21-Dec-17 13:02 40.805600 -124.116629 260 9ft 7kts
21-Dec-17 13:03 40.804968 -124.117351 170 9ft 0kts
21-Dec-17 13:04 40.804968 -124.117351 170 9ft 0kts
21-Dec-17 13:05 40.804968 -124.117351 170 9ft 0kts
21-Dec-17 13:06 40.804968 -124.117351 170 9ft 0kts

Navigation Log

Ident Type
Flight plan parsing failed, navigation log unavailable